Soekarno-Hatta International Airport
WIII : now visible

Airfield :











YOU CAN JOIN US ON...

 
LOGIN :

Register | Disclaimer

   EN    FR    IT 

 









Legend :    VFR   Marginal VFR   IFR   Intensive IFR   Very Intensive IFR
Visi :
Ceiling :
>= 8 km
>= 3000ft
5 to 8 km
1000 to 3000 ft
1500m to 5 km
500 to 1000 ft
800 to 1500m
200 to 500 ft
< 800m
< 200 ft
Symbols :   Thunderstorms  Fog  Heavy snow  Heavy precipitations  Wind > 20 kt






- Airport Elevation : 34 ft
- IATA code : CGK


WIII - Soekarno-Hatta International

CURRENT METAR :
  • 180230Z VRB02KT 9999 FEW018 29/24 Q1013 NOSIG

EXPIRED METARs :
  • 180200Z VRB04KT 9000 FEW018 28/23 Q1012 NOSIG
  • 180130Z VRB04KT 8000 FEW020 28/24 Q1013 NOSIG
  • 180100Z 21006KT 6000 FEW020 27/24 Q1013 NOSIG
  • 180030Z VRB05KT 5000 HZ FEW020 27/24 Q1012 NOSIG
  • 180000Z VRB05KT 3000 HZ FEW020 26/24 Q1012 NOSIG

TAF TAF WIII
Valid from the 18 at 00:00 until the 19 at 06:00 UTC


172300Z 1800/1906 18005KT 5000 HZ SCT020
BECMG 1802/1804 06010KT 9000 NSW
TEMPO 1809/1812 5000 -TSRA FEW018CB
WIIF FIR / Asia



MET'MAP, your aeronautical weather chart ! - Copyright ORBIFLY December 2007 - Disclaimer

ORBIFLY MET'MAP TEAM :

Programming & Development : Alexandra Zaïnal
Concept & original design : Baudouin d'Aumeries
Assistance for programming : Marc-Olivier Méhu
Technical & hardware support : Manuel Goepfert

Contact : metmap@orbifly.com




SOURCES & CREDITS :

   NOAA       Earth
Advisory